createdAt,value
2023-05-18T00:00:39.646Z,8.00
2023-05-18T00:01:41.994Z,6.30
2023-05-18T00:02:44.335Z,8.50
2023-05-18T00:03:46.753Z,7.70
2023-05-18T00:04:49.135Z,8.10
2023-05-18T00:05:51.778Z,9.20
2023-05-18T00:06:58.044Z,9.18
2023-05-18T00:08:01.138Z,6.60
2023-05-18T00:09:03.347Z,8.30
2023-05-18T00:10:07.678Z,8.40
2023-05-18T00:11:10.344Z,9.50
2023-05-18T00:12:12.628Z,9.00
2023-05-18T00:13:15.075Z,6.40
2023-05-18T00:14:17.510Z,9.60
2023-05-18T00:15:19.948Z,10.20
2023-05-18T00:16:22.213Z,7.30
2023-05-18T00:17:25.002Z,8.50
2023-05-18T00:18:28.753Z,6.90
2023-05-18T00:19:30.946Z,4.80
2023-05-18T00:20:35.349Z,9.90
2023-05-18T00:21:40.216Z,7.50
2023-05-18T00:22:43.126Z,9.00
2023-05-18T00:23:47.701Z,0.40
2023-05-18T00:24:50.559Z,10.50
2023-05-18T00:25:52.785Z,9.09
2023-05-18T00:26:55.369Z,11.70
2023-05-18T00:27:58.078Z,9.20
2023-05-18T00:29:00.486Z,8.27
2023-05-18T00:30:04.616Z,9.30
2023-05-18T00:31:07.470Z,6.80
2023-05-18T00:32:10.292Z,9.90
2023-05-18T00:33:12.617Z,8.64
2023-05-18T00:34:15.861Z,8.10
2023-05-18T00:35:18.067Z,7.60
2023-05-18T00:36:20.712Z,8.30
2023-05-18T00:37:23.115Z,6.40
2023-05-18T00:38:25.409Z,8.20
2023-05-18T00:39:27.687Z,8.50
2023-05-18T00:40:31.387Z,8.30
2023-05-18T00:41:33.711Z,8.10
2023-05-18T00:42:37.234Z,9.30
2023-05-18T00:43:42.546Z,7.90
2023-05-18T00:44:45.074Z,8.60
2023-05-18T00:45:47.713Z,9.27
2023-05-18T00:46:51.566Z,7.60
2023-05-18T00:47:53.849Z,8.40
2023-05-18T00:49:01.052Z,8.60
2023-05-18T00:50:03.923Z,8.40
2023-05-18T00:51:06.385Z,8.40
2023-05-18T00:52:09.044Z,9.80
2023-05-18T00:53:11.515Z,8.50
2023-05-18T00:54:14.371Z,8.40
2023-05-18T00:55:18.276Z,8.64
2023-05-18T00:56:24.951Z,9.20
2023-05-18T00:57:29.140Z,9.70
2023-05-18T00:58:31.550Z,8.70
2023-05-18T00:59:34.227Z,8.20
2023-05-18T01:00:38.236Z,6.45
2023-05-18T01:01:44.289Z,7.70
2023-05-18T01:02:46.792Z,8.80
2023-05-18T01:03:49.200Z,8.10
2023-05-18T01:04:52.224Z,9.30
2023-05-18T01:05:56.374Z,8.30
2023-05-18T01:07:00.602Z,9.00
2023-05-18T01:08:03.120Z,9.60
2023-05-18T01:09:08.381Z,7.70
2023-05-18T01:10:13.026Z,8.10
2023-05-18T01:11:34.410Z,8.30
2023-05-18T01:14:24.143Z,8.60
2023-05-18T01:17:14.523Z,9.50
2023-05-18T01:18:24.537Z,9.00
2023-05-18T01:19:44.925Z,9.60
2023-05-18T01:20:51.060Z,9.60
2023-05-18T01:22:00.255Z,10.30
2023-05-18T01:23:30.028Z,9.20
2023-05-18T01:24:45.000Z,9.30
2023-05-18T01:25:56.913Z,6.30
2023-05-18T01:27:01.523Z,9.70
2023-05-18T01:28:07.936Z,9.50
2023-05-18T01:29:13.499Z,8.50
2023-05-18T01:30:17.485Z,9.70
2023-05-18T01:31:20.449Z,11.40
2023-05-18T01:32:22.759Z,15.00
2023-05-18T01:33:26.032Z,11.10
2023-05-18T01:34:28.787Z,8.70
2023-05-18T01:35:33.731Z,9.00
2023-05-18T01:36:36.463Z,9.09
2023-05-18T01:37:39.324Z,9.40
2023-05-18T01:38:44.331Z,9.00
2023-05-18T01:39:47.031Z,9.40
2023-05-18T01:41:10.108Z,9.40
2023-05-18T01:42:18.736Z,9.30
2023-05-18T01:43:25.146Z,10.40
2023-05-18T01:44:32.286Z,8.70
2023-05-18T01:45:39.016Z,9.50
2023-05-18T01:47:12.415Z,9.80
2023-05-18T01:48:18.281Z,8.50
2023-05-18T01:49:33.042Z,10.70
2023-05-18T01:50:38.436Z,11.50
2023-05-18T01:51:47.341Z,6.30
2023-05-18T01:54:08.051Z,10.30
2023-05-18T01:55:14.999Z,7.40
2023-05-18T01:56:19.981Z,9.50
2023-05-18T01:57:26.236Z,9.60
2023-05-18T01:58:28.622Z,11.60
2023-05-18T01:59:31.143Z,10.80
2023-05-18T02:00:35.060Z,10.73
2023-05-18T02:01:38.102Z,10.70
2023-05-18T02:02:41.571Z,10.00
2023-05-18T02:03:44.520Z,10.90
2023-05-18T02:04:47.165Z,10.50
2023-05-18T02:05:50.284Z,10.20
2023-05-18T02:06:54.074Z,12.30
2023-05-18T02:07:57.661Z,10.80
2023-05-18T02:09:00.606Z,12.20
2023-05-18T02:10:03.430Z,11.70
2023-05-18T02:11:06.776Z,11.40
2023-05-18T02:12:10.078Z,9.90
2023-05-18T02:13:12.517Z,12.30
2023-05-18T02:14:15.105Z,11.50
2023-05-18T02:15:17.767Z,11.60
2023-05-18T02:16:20.102Z,10.60
2023-05-18T02:17:24.208Z,12.50
2023-05-18T02:18:28.347Z,12.30
2023-05-18T02:19:32.998Z,12.10
2023-05-18T02:20:37.143Z,10.60
2023-05-18T02:21:42.023Z,13.10
2023-05-18T02:22:45.486Z,14.90
2023-05-18T02:23:48.419Z,12.00
2023-05-18T02:24:51.377Z,12.70
2023-05-18T02:25:56.746Z,13.90
2023-05-18T02:27:01.350Z,13.90
2023-05-18T02:28:03.798Z,12.20
2023-05-18T02:29:06.388Z,13.20
2023-05-18T02:30:12.511Z,11.40
2023-05-18T02:31:15.478Z,12.80
2023-05-18T02:32:18.035Z,13.09
2023-05-18T02:33:23.298Z,10.27
2023-05-18T02:34:26.921Z,13.20
2023-05-18T02:35:29.594Z,10.73
2023-05-18T02:36:34.741Z,11.50
2023-05-18T02:37:41.738Z,12.80
2023-05-18T02:38:45.718Z,11.00
2023-05-18T02:39:48.030Z,14.10
2023-05-18T02:40:50.504Z,11.20
2023-05-18T02:41:52.859Z,10.10
2023-05-18T02:42:55.630Z,11.80
2023-05-18T02:43:59.002Z,13.10
2023-05-18T02:45:01.935Z,12.36
2023-05-18T02:46:05.361Z,12.90
2023-05-18T02:47:08.424Z,9.90
2023-05-18T02:48:12.683Z,11.30
2023-05-18T02:49:15.024Z,11.90
2023-05-18T02:50:17.796Z,12.10
2023-05-18T02:51:21.255Z,11.50
2023-05-18T02:52:23.756Z,10.30
2023-05-18T02:53:26.145Z,7.30
2023-05-18T02:54:31.227Z,11.30
2023-05-18T02:55:34.525Z,11.50
2023-05-18T02:56:40.886Z,8.40
2023-05-18T02:57:46.569Z,9.50
2023-05-18T02:58:49.992Z,11.00
2023-05-18T02:59:56.939Z,10.70
2023-05-18T03:00:59.870Z,8.20
2023-05-18T03:02:04.782Z,7.50
2023-05-18T03:03:09.185Z,12.20
2023-05-18T03:04:13.496Z,15.50
2023-05-18T03:05:19.730Z,12.90
2023-05-18T03:06:25.781Z,13.60
2023-05-18T03:07:30.843Z,11.10
2023-05-18T03:08:33.308Z,10.40
2023-05-18T03:09:35.791Z,10.80
2023-05-18T03:10:38.810Z,9.30
2023-05-18T03:11:41.589Z,11.90
2023-05-18T03:12:44.838Z,8.70
2023-05-18T03:13:48.027Z,9.80
2023-05-18T03:14:51.050Z,10.50
2023-05-18T03:15:53.336Z,14.30
2023-05-18T03:16:57.366Z,10.30
2023-05-18T03:18:00.098Z,11.50
2023-05-18T03:19:02.726Z,11.10
2023-05-18T03:20:11.037Z,11.40
2023-05-18T03:21:13.501Z,11.30
2023-05-18T03:22:15.853Z,11.40
2023-05-18T03:23:19.616Z,12.20
2023-05-18T03:24:22.236Z,8.90
2023-05-18T03:25:25.113Z,9.18
2023-05-18T03:26:29.695Z,9.90
2023-05-18T03:27:34.038Z,13.40
2023-05-18T03:28:38.114Z,10.20
2023-05-18T03:29:40.563Z,12.80
2023-05-18T03:30:43.117Z,10.30
2023-05-18T03:31:45.730Z,8.20
2023-05-18T03:32:49.553Z,12.40
2023-05-18T03:33:52.031Z,9.50
2023-05-18T03:34:54.871Z,10.60
2023-05-18T03:36:00.356Z,11.20
2023-05-18T03:37:03.557Z,11.00
2023-05-18T03:38:07.102Z,12.80
2023-05-18T03:39:11.443Z,10.80
2023-05-18T03:40:16.138Z,10.90
2023-05-18T03:41:19.146Z,11.50
2023-05-18T03:42:21.398Z,13.10
2023-05-18T03:43:25.275Z,10.70
2023-05-18T03:44:28.887Z,12.40
2023-05-18T03:45:32.779Z,12.30
2023-05-18T03:46:35.799Z,12.00
2023-05-18T03:47:38.876Z,9.70
2023-05-18T03:48:41.331Z,8.80
2023-05-18T03:49:43.775Z,8.90
2023-05-18T03:50:46.681Z,11.40
2023-05-18T03:51:51.888Z,10.36
2023-05-18T03:52:55.151Z,1.60
2023-05-18T03:53:57.819Z,11.20
2023-05-18T03:55:01.414Z,11.80
2023-05-18T03:56:03.946Z,8.40
2023-05-18T03:57:06.454Z,10.00
2023-05-18T03:58:09.007Z,7.70
2023-05-18T03:59:11.165Z,9.80
2023-05-18T04:00:15.206Z,9.90
2023-05-18T04:01:22.176Z,8.50
2023-05-18T04:02:26.070Z,10.50
2023-05-18T04:03:29.989Z,10.30
2023-05-18T04:04:32.709Z,8.00
2023-05-18T04:05:34.979Z,9.50
2023-05-18T04:06:37.687Z,9.50
2023-05-18T04:07:41.762Z,8.90
2023-05-18T04:08:45.570Z,11.00
2023-05-18T04:09:48.875Z,10.40
2023-05-18T04:10:51.932Z,9.80
2023-05-18T04:11:55.815Z,7.55
2023-05-18T04:12:57.977Z,8.70
2023-05-18T04:14:00.450Z,12.70
2023-05-18T04:15:03.555Z,10.10
2023-05-18T04:16:07.877Z,8.40
2023-05-18T04:17:10.810Z,10.00
2023-05-18T04:18:13.785Z,11.30
2023-05-18T04:19:18.548Z,9.60
2023-05-18T04:20:21.100Z,12.20
2023-05-18T04:21:23.547Z,9.70
2023-05-18T04:22:28.793Z,9.90
2023-05-18T04:23:32.806Z,11.80
2023-05-18T04:24:35.732Z,12.00
2023-05-18T04:25:38.789Z,12.40
2023-05-18T04:26:41.899Z,9.90
2023-05-18T04:27:44.748Z,12.45
2023-05-18T04:28:48.712Z,11.80
2023-05-18T04:29:52.287Z,10.20
2023-05-18T04:30:54.925Z,11.60
2023-05-18T04:31:59.031Z,10.30
2023-05-18T04:33:03.486Z,12.10
2023-05-18T04:34:08.415Z,12.20
2023-05-18T04:35:11.816Z,12.30
2023-05-18T04:36:18.455Z,9.20
2023-05-18T04:37:22.733Z,10.50
2023-05-18T04:38:26.454Z,9.40
2023-05-18T04:39:29.571Z,10.90
2023-05-18T04:40:33.307Z,7.10
2023-05-18T04:41:36.648Z,10.10
2023-05-18T04:42:42.384Z,12.40
2023-05-18T04:43:45.109Z,9.90
2023-05-18T04:44:48.339Z,10.18
2023-05-18T04:45:50.923Z,11.60
2023-05-18T04:46:55.537Z,7.55
2023-05-18T04:47:59.575Z,10.20
2023-05-18T04:49:03.011Z,11.73
2023-05-18T04:50:08.118Z,10.80
2023-05-18T04:51:10.851Z,11.60
2023-05-18T04:52:13.308Z,11.40
2023-05-18T04:53:17.602Z,10.40
2023-05-18T04:54:20.201Z,14.90
2023-05-18T04:55:25.148Z,12.40
2023-05-18T04:56:30.129Z,12.20
2023-05-18T04:57:32.363Z,12.10
2023-05-18T04:58:36.577Z,12.80
2023-05-18T05:00:52.295Z,12.70
2023-05-18T05:01:55.587Z,11.20
2023-05-18T05:02:59.947Z,11.60
2023-05-18T05:04:03.378Z,10.82
2023-05-18T05:05:06.895Z,10.50
2023-05-18T05:06:10.996Z,9.10
2023-05-18T05:07:13.550Z,12.10
2023-05-18T05:08:17.542Z,11.60
2023-05-18T05:09:20.977Z,6.55
2023-05-18T05:10:23.502Z,11.90
2023-05-18T05:11:25.940Z,11.00
2023-05-18T05:12:28.131Z,12.50
2023-05-18T05:13:30.401Z,11.50
2023-05-18T05:14:33.396Z,11.10
2023-05-18T05:15:36.361Z,10.80
2023-05-18T05:16:39.337Z,11.40
2023-05-18T05:17:43.494Z,8.82
2023-05-18T05:18:47.400Z,11.10
2023-05-18T05:19:51.448Z,8.80
2023-05-18T05:20:55.674Z,9.40
2023-05-18T05:21:58.124Z,10.50
2023-05-18T05:23:01.851Z,4.90
2023-05-18T05:24:05.463Z,11.00
2023-05-18T05:25:08.533Z,10.70
2023-05-18T05:26:12.171Z,10.50
2023-05-18T05:27:14.376Z,9.90
2023-05-18T05:28:17.584Z,11.60
2023-05-18T05:29:20.982Z,10.20
2023-05-18T05:30:23.561Z,11.40
2023-05-18T05:31:26.062Z,9.20
2023-05-18T05:32:28.507Z,10.90
2023-05-18T05:33:31.148Z,11.50
2023-05-18T05:34:33.528Z,11.30
2023-05-18T05:35:36.813Z,10.10
2023-05-18T05:36:39.482Z,9.60
2023-05-18T05:37:42.746Z,10.20
2023-05-18T05:38:45.235Z,9.80
2023-05-18T05:39:48.571Z,8.80
2023-05-18T05:40:52.842Z,10.20
2023-05-18T05:41:56.977Z,10.00
2023-05-18T05:42:59.979Z,9.60
2023-05-18T05:44:02.250Z,9.60
2023-05-18T05:45:06.256Z,10.40
2023-05-18T05:46:11.679Z,7.40
2023-05-18T05:47:15.198Z,9.30
2023-05-18T05:48:18.131Z,9.20
2023-05-18T05:49:21.340Z,8.20
2023-05-18T05:50:24.226Z,9.30
2023-05-18T05:51:28.444Z,8.20
2023-05-18T05:52:31.447Z,9.00
2023-05-18T05:53:33.781Z,8.36
2023-05-18T05:54:37.138Z,8.90
2023-05-18T05:55:41.360Z,9.50
2023-05-18T05:56:46.356Z,9.80
2023-05-18T05:57:49.955Z,10.00
2023-05-18T05:58:52.532Z,8.90
2023-05-18T05:59:55.453Z,6.70
2023-05-18T06:00:58.595Z,9.64
2023-05-18T06:02:01.487Z,11.50
2023-05-18T06:03:04.391Z,10.40
2023-05-18T06:04:12.081Z,8.40
2023-05-18T06:05:14.929Z,8.55
2023-05-18T06:06:18.243Z,8.70
2023-05-18T06:07:20.716Z,8.00
2023-05-18T06:08:24.401Z,8.60
2023-05-18T06:09:27.570Z,8.80
2023-05-18T06:10:30.719Z,8.00
2023-05-18T06:11:34.241Z,7.30
2023-05-18T06:12:36.735Z,9.70
2023-05-18T06:13:40.293Z,8.90
2023-05-18T06:14:43.927Z,7.30
2023-05-18T06:15:46.382Z,7.80
2023-05-18T06:16:49.533Z,7.50
2023-05-18T06:17:52.482Z,10.27
2023-05-18T06:18:55.311Z,9.30
2023-05-18T06:19:57.814Z,7.64
2023-05-18T06:21:00.724Z,6.30
2023-05-18T06:22:03.244Z,8.50
2023-05-18T06:23:07.494Z,7.50
2023-05-18T06:24:28.250Z,6.50
2023-05-18T06:26:56.615Z,7.60
2023-05-18T06:28:07.622Z,5.80
2023-05-18T06:29:14.978Z,7.60
2023-05-18T06:30:31.237Z,8.20
2023-05-18T06:31:47.686Z,8.70
2023-05-18T06:32:51.955Z,8.20
2023-05-18T06:33:54.275Z,7.20
2023-05-18T06:34:57.294Z,7.60
2023-05-18T06:35:59.838Z,7.10
2023-05-18T06:37:04.355Z,6.80
2023-05-18T06:38:06.826Z,7.80
2023-05-18T06:39:09.347Z,7.00
2023-05-18T06:40:13.455Z,6.64
2023-05-18T06:41:16.276Z,7.70
2023-05-18T06:42:19.247Z,7.70
2023-05-18T06:43:29.901Z,4.10
2023-05-18T06:44:36.197Z,5.80
2023-05-18T06:45:43.116Z,5.70
2023-05-18T06:46:49.094Z,6.60
2023-05-18T06:47:54.942Z,8.20
2023-05-18T06:48:59.129Z,7.30
2023-05-18T06:50:02.230Z,6.10
2023-05-18T06:51:06.401Z,6.40
2023-05-18T06:52:10.498Z,8.10
2023-05-18T06:53:13.618Z,6.10
2023-05-18T06:54:16.668Z,7.40
2023-05-18T06:55:19.699Z,7.50
2023-05-18T06:56:22.740Z,7.60
2023-05-18T06:57:28.025Z,6.70
2023-05-18T06:58:33.898Z,5.60
2023-05-18T06:59:37.890Z,7.40
2023-05-18T07:00:40.533Z,7.00
2023-05-18T07:01:43.278Z,5.91
2023-05-18T07:02:46.831Z,7.80
2023-05-18T07:03:49.759Z,5.80
2023-05-18T07:04:54.644Z,6.50
2023-05-18T07:05:56.829Z,7.20
2023-05-18T07:07:04.764Z,6.60
2023-05-18T07:08:07.444Z,6.30
2023-05-18T07:09:10.035Z,6.70
2023-05-18T07:10:12.819Z,3.60
2023-05-18T07:11:17.802Z,5.40
2023-05-18T07:12:20.622Z,4.20
2023-05-18T07:13:23.293Z,4.64
2023-05-18T07:14:28.826Z,5.00
2023-05-18T07:15:31.294Z,5.60
2023-05-18T07:16:34.930Z,4.20
2023-05-18T07:17:41.545Z,5.60
2023-05-18T07:18:43.823Z,4.60
2023-05-18T07:19:47.774Z,5.30
2023-05-18T07:20:50.793Z,4.30
2023-05-18T07:21:55.878Z,5.00
2023-05-18T07:22:58.230Z,5.00
2023-05-18T07:24:02.907Z,4.40
2023-05-18T07:25:06.802Z,3.50
2023-05-18T07:26:11.396Z,5.20
2023-05-18T07:27:13.836Z,3.70
2023-05-18T07:28:17.676Z,4.80
2023-05-18T07:29:20.459Z,5.70
2023-05-18T07:30:24.074Z,7.00
2023-05-18T07:31:27.320Z,5.60
2023-05-18T07:32:29.932Z,5.20
2023-05-18T07:33:32.455Z,5.50
2023-05-18T07:34:34.872Z,4.40
2023-05-18T07:35:37.589Z,4.50
2023-05-18T07:36:40.054Z,4.20
2023-05-18T07:37:42.460Z,5.10
2023-05-18T07:38:45.252Z,3.80
2023-05-18T07:39:47.434Z,5.00
2023-05-18T07:40:50.677Z,5.55
2023-05-18T07:41:53.009Z,4.18
2023-05-18T07:42:55.521Z,3.10
2023-05-18T07:43:57.798Z,5.40
2023-05-18T07:45:00.379Z,4.80
2023-05-18T07:46:03.054Z,6.50
2023-05-18T07:47:06.347Z,5.64
2023-05-18T07:48:08.774Z,6.10
2023-05-18T07:49:13.376Z,6.60
2023-05-18T07:50:16.227Z,5.80
2023-05-18T07:51:18.738Z,6.00
2023-05-18T07:52:20.914Z,5.20
2023-05-18T07:53:23.862Z,7.60
2023-05-18T07:54:27.063Z,5.70
2023-05-18T07:55:29.919Z,6.00
2023-05-18T07:56:32.967Z,5.40
2023-05-18T07:57:36.143Z,6.27
2023-05-18T07:58:38.949Z,5.40
2023-05-18T07:59:41.374Z,6.73
2023-05-18T08:00:44.284Z,5.64
2023-05-18T08:01:48.447Z,7.20
2023-05-18T08:02:50.882Z,4.70
2023-05-18T08:03:54.130Z,5.50
2023-05-18T08:04:57.616Z,4.80
2023-05-18T08:06:00.271Z,5.80
2023-05-18T08:07:04.494Z,5.20
2023-05-18T08:08:10.299Z,6.20
2023-05-18T08:09:13.794Z,7.50
2023-05-18T08:10:16.980Z,6.80
2023-05-18T08:11:19.290Z,5.64
2023-05-18T08:12:22.722Z,7.00
2023-05-18T08:13:25.167Z,3.20
2023-05-18T08:14:27.405Z,7.80
2023-05-18T08:15:30.035Z,8.30
2023-05-18T08:16:35.147Z,8.20
2023-05-18T08:17:37.677Z,5.30
2023-05-18T08:18:40.330Z,7.00
2023-05-18T08:19:43.450Z,8.90
2023-05-18T08:20:47.904Z,7.20
2023-05-18T08:21:50.774Z,8.30
2023-05-18T08:22:52.956Z,7.30
2023-05-18T08:23:55.734Z,8.40
2023-05-18T08:24:59.760Z,7.70
2023-05-18T08:26:06.472Z,6.00
2023-05-18T08:27:10.588Z,7.10
2023-05-18T08:28:12.784Z,5.80
2023-05-18T08:29:15.878Z,8.00
2023-05-18T08:30:21.264Z,7.60
2023-05-18T08:31:23.748Z,8.30
2023-05-18T08:32:26.196Z,8.40
2023-05-18T08:33:28.967Z,10.40
2023-05-18T08:34:31.295Z,9.55
2023-05-18T08:35:33.640Z,8.40
2023-05-18T08:36:36.797Z,10.18
2023-05-18T08:37:40.227Z,8.64
2023-05-18T08:38:42.744Z,10.30
2023-05-18T08:39:46.706Z,11.50
2023-05-18T08:40:56.080Z,11.00
2023-05-18T08:42:41.497Z,10.00
2023-05-18T08:43:36.976Z,10.50
2023-05-18T08:46:10.202Z,10.80
2023-05-18T08:47:15.802Z,8.80
2023-05-18T08:48:21.789Z,8.60
2023-05-18T08:49:26.152Z,10.80
2023-05-18T08:50:31.184Z,8.20
2023-05-18T08:51:35.501Z,9.20
2023-05-18T08:52:41.477Z,7.80
2023-05-18T08:53:44.550Z,9.50
2023-05-18T08:54:50.337Z,7.40
2023-05-18T08:55:58.749Z,11.80
2023-05-18T08:57:02.748Z,9.90
2023-05-18T08:58:07.329Z,12.60
2023-05-18T08:59:12.255Z,11.60
2023-05-18T09:00:15.512Z,14.40
2023-05-18T09:01:17.767Z,11.70
2023-05-18T09:02:20.168Z,9.70
2023-05-18T09:03:24.951Z,12.70
2023-05-18T09:04:28.266Z,10.20
2023-05-18T09:05:31.611Z,9.00
2023-05-18T09:06:35.397Z,12.40
2023-05-18T09:07:41.348Z,11.50
2023-05-18T09:08:45.995Z,10.90
2023-05-18T09:09:49.381Z,9.60
2023-05-18T09:10:52.242Z,8.70
2023-05-18T09:11:56.564Z,9.30
2023-05-18T09:13:02.991Z,9.90
2023-05-18T09:14:05.479Z,9.50
2023-05-18T09:15:10.422Z,10.20
2023-05-18T09:16:13.139Z,9.20
2023-05-18T09:17:15.465Z,9.18
2023-05-18T09:18:17.637Z,12.00
2023-05-18T09:19:20.124Z,9.90
2023-05-18T09:20:25.794Z,8.55
2023-05-18T09:21:30.763Z,9.70
2023-05-18T09:22:36.496Z,10.40
2023-05-18T09:23:40.956Z,10.00
2023-05-18T09:24:43.992Z,8.20
2023-05-18T09:25:49.430Z,9.90
2023-05-18T09:26:52.832Z,10.00
2023-05-18T09:27:55.223Z,9.80
2023-05-18T09:28:59.462Z,9.00
2023-05-18T09:30:01.711Z,8.40
2023-05-18T09:31:07.339Z,7.10
2023-05-18T09:32:11.498Z,9.30
2023-05-18T09:33:18.122Z,7.70
2023-05-18T09:34:21.055Z,7.90
2023-05-18T09:35:25.086Z,8.55
2023-05-18T09:36:29.170Z,9.00
2023-05-18T09:37:32.536Z,10.80
2023-05-18T09:38:37.781Z,9.00
2023-05-18T09:39:43.003Z,8.70
2023-05-18T09:40:46.781Z,9.60
2023-05-18T09:41:57.565Z,7.00
2023-05-18T09:43:04.348Z,8.80
2023-05-18T09:44:12.621Z,9.00
2023-05-18T09:45:18.906Z,9.90
2023-05-18T09:46:21.650Z,10.10
2023-05-18T09:47:23.907Z,8.20
2023-05-18T09:48:26.014Z,8.50
2023-05-18T09:49:31.162Z,10.30
2023-05-18T09:50:34.302Z,8.60
2023-05-18T09:51:37.637Z,10.50
2023-05-18T09:52:45.477Z,10.50
2023-05-18T09:53:51.024Z,6.60
2023-05-18T09:55:00.334Z,9.00
2023-05-18T09:56:09.084Z,8.10
2023-05-18T09:57:11.646Z,9.20
2023-05-18T09:58:16.916Z,8.91
2023-05-18T09:59:20.433Z,8.30
2023-05-18T10:00:25.719Z,9.50
2023-05-18T10:01:29.937Z,9.00
2023-05-18T10:02:32.222Z,8.70
2023-05-18T10:04:49.563Z,5.40
2023-05-18T10:05:52.026Z,8.30
2023-05-18T10:06:54.383Z,8.60
2023-05-18T10:07:57.548Z,10.10
2023-05-18T10:09:04.964Z,9.20
2023-05-18T10:10:09.350Z,9.30
2023-05-18T10:11:12.018Z,5.60
2023-05-18T10:12:16.268Z,9.30
2023-05-18T10:13:20.290Z,7.40
2023-05-18T10:14:28.190Z,5.50
2023-05-18T10:15:33.008Z,8.80
2023-05-18T10:16:35.589Z,7.30
2023-05-18T10:17:39.555Z,7.90
2023-05-18T10:18:42.651Z,8.50
2023-05-18T10:19:46.424Z,10.30
2023-05-18T10:20:50.471Z,9.40
2023-05-18T10:21:54.222Z,8.50
2023-05-18T10:23:00.283Z,8.00
2023-05-18T10:24:05.313Z,8.80
2023-05-18T10:25:11.237Z,2.50
2023-05-18T10:26:17.005Z,10.10
2023-05-18T10:27:23.985Z,6.80
2023-05-18T10:28:28.995Z,7.20
2023-05-18T10:29:33.596Z,8.50
2023-05-18T10:30:37.217Z,8.90
2023-05-18T10:31:41.592Z,8.50
2023-05-18T10:32:47.518Z,9.50
2023-05-18T10:33:51.578Z,9.70
2023-05-18T10:34:56.291Z,7.70
2023-05-18T10:35:59.280Z,8.10
2023-05-18T10:37:04.214Z,7.30
2023-05-18T10:38:06.878Z,7.80
2023-05-18T10:39:11.389Z,8.73
2023-05-18T10:40:15.127Z,8.30
2023-05-18T10:41:22.269Z,6.60
2023-05-18T10:42:25.987Z,8.70
2023-05-18T10:43:28.791Z,9.60
2023-05-18T10:44:31.643Z,8.18
2023-05-18T10:45:36.735Z,7.40
2023-05-18T10:46:40.706Z,7.80
2023-05-18T10:47:43.926Z,9.40
2023-05-18T10:48:49.683Z,8.40
2023-05-18T10:49:54.000Z,8.70
2023-05-18T10:50:57.738Z,7.90
2023-05-18T10:52:02.622Z,6.80
2023-05-18T10:53:06.346Z,5.20
2023-05-18T10:54:12.569Z,9.40
2023-05-18T10:55:14.955Z,7.60
2023-05-18T10:56:19.067Z,8.40
2023-05-18T10:57:21.670Z,9.40
2023-05-18T10:58:27.048Z,9.45
2023-05-18T10:59:30.234Z,7.50
2023-05-18T11:00:36.037Z,9.60
2023-05-18T11:01:41.449Z,7.80
2023-05-18T11:02:44.888Z,7.40
2023-05-18T11:03:49.080Z,8.30
2023-05-18T11:04:54.252Z,8.50
2023-05-18T11:06:09.795Z,7.70
2023-05-18T11:07:13.789Z,9.30
2023-05-18T11:08:26.128Z,7.20
2023-05-18T11:09:29.461Z,8.20
2023-05-18T11:10:42.840Z,9.20
2023-05-18T11:11:54.359Z,9.30
2023-05-18T11:14:11.962Z,8.70
2023-05-18T11:15:14.282Z,9.30
2023-05-18T11:16:18.143Z,7.00
2023-05-18T11:17:31.392Z,8.80
2023-05-18T11:18:44.002Z,9.40
2023-05-18T11:20:08.744Z,7.40
2023-05-18T11:21:35.039Z,8.10
2023-05-18T11:22:49.228Z,7.20
2023-05-18T11:24:16.400Z,9.60
2023-05-18T11:25:28.766Z,9.80
2023-05-18T11:26:31.861Z,9.60
2023-05-18T11:27:34.806Z,9.30
2023-05-18T11:28:48.296Z,8.60
2023-05-18T11:29:57.789Z,10.20
2023-05-18T11:30:55.276Z,8.70
2023-05-18T11:31:58.024Z,8.80
2023-05-18T11:34:39.822Z,8.10
2023-05-18T11:36:07.175Z,10.00
2023-05-18T11:37:10.242Z,7.50
2023-05-18T11:38:13.084Z,9.90
2023-05-18T11:39:19.991Z,8.10
2023-05-18T11:40:46.236Z,9.70
2023-05-18T11:42:00.776Z,9.80
2023-05-18T11:43:03.671Z,11.20
2023-05-18T11:44:15.394Z,9.60
2023-05-18T11:45:17.701Z,9.70
2023-05-18T11:46:21.650Z,9.20
2023-05-18T11:47:27.446Z,8.70
2023-05-18T11:48:31.651Z,9.80
2023-05-18T11:49:46.689Z,11.10
2023-05-18T11:50:51.640Z,10.80
2023-05-18T11:52:03.688Z,9.90
2023-05-18T11:53:06.168Z,8.30
2023-05-18T11:54:08.639Z,9.80
2023-05-18T11:55:17.483Z,9.20
2023-05-18T11:56:20.864Z,8.90
2023-05-18T11:57:42.151Z,9.20
2023-05-18T11:58:44.555Z,8.20
2023-05-18T11:59:49.434Z,7.40
2023-05-18T12:00:52.952Z,8.80
2023-05-18T12:01:57.973Z,9.20
2023-05-18T12:03:02.055Z,8.80
2023-05-18T12:04:06.710Z,8.80
2023-05-18T12:05:11.249Z,8.10
2023-05-18T12:06:15.650Z,8.80
2023-05-18T12:07:19.911Z,9.60
2023-05-18T12:08:24.678Z,7.10
2023-05-18T12:09:29.006Z,9.50
2023-05-18T12:10:34.814Z,9.90
2023-05-18T12:11:38.115Z,11.10
2023-05-18T12:12:45.665Z,8.00
2023-05-18T12:13:52.353Z,9.70
2023-05-18T12:14:57.649Z,9.40
2023-05-18T12:16:02.025Z,4.40
2023-05-18T12:17:05.121Z,9.60
2023-05-18T12:18:07.396Z,8.10
2023-05-18T12:19:11.101Z,10.33
2023-05-18T12:20:19.593Z,9.90
2023-05-18T12:21:24.177Z,10.50
2023-05-18T12:22:27.153Z,10.90
2023-05-18T12:23:37.684Z,10.40
2023-05-18T12:24:41.080Z,6.50
2023-05-18T12:25:43.600Z,10.40
2023-05-18T12:26:47.944Z,8.60
2023-05-18T12:27:52.892Z,9.70
2023-05-18T12:28:56.088Z,8.60
2023-05-18T12:30:01.262Z,10.00
2023-05-18T12:31:08.995Z,10.00
2023-05-18T12:32:13.672Z,9.30
2023-05-18T12:33:16.588Z,8.70
2023-05-18T12:34:19.628Z,9.70
2023-05-18T12:35:24.518Z,9.70
2023-05-18T12:36:28.118Z,9.80
2023-05-18T12:37:41.635Z,9.50
2023-05-18T12:38:36.993Z,10.20
2023-05-18T12:39:39.279Z,10.36
2023-05-18T12:40:47.182Z,8.90
2023-05-18T12:41:49.614Z,10.70
2023-05-18T12:42:54.223Z,10.56
2023-05-18T12:43:57.834Z,9.00
2023-05-18T12:45:00.412Z,10.55
2023-05-18T12:46:05.815Z,9.70
2023-05-18T12:47:09.455Z,7.00
2023-05-18T12:48:13.071Z,9.73
2023-05-18T12:49:19.001Z,9.50
2023-05-18T12:50:23.099Z,9.80
2023-05-18T12:51:28.399Z,9.20
2023-05-18T12:52:31.072Z,9.80
2023-05-18T12:53:42.612Z,10.50
2023-05-18T12:55:00.541Z,7.40
2023-05-18T12:59:03.958Z,11.40
2023-05-18T13:00:10.410Z,6.82
2023-05-18T13:01:14.277Z,9.70
2023-05-18T13:02:34.667Z,9.30
2023-05-18T13:03:41.287Z,11.30
2023-05-18T13:04:43.891Z,7.00
2023-05-18T13:05:51.471Z,9.00
2023-05-18T13:06:56.874Z,8.60
2023-05-18T13:07:59.306Z,8.50
2023-05-18T13:09:01.426Z,9.67
2023-05-18T13:10:12.076Z,9.67
2023-05-18T13:11:17.541Z,7.20
2023-05-18T13:12:40.334Z,8.80
2023-05-18T13:14:03.579Z,9.90
2023-05-18T13:15:11.967Z,11.10
2023-05-18T13:16:16.832Z,11.20
2023-05-18T13:18:31.185Z,9.80
2023-05-18T13:19:36.720Z,8.89
2023-05-18T13:20:43.694Z,8.20
2023-05-18T13:21:49.892Z,9.90
2023-05-18T13:22:54.639Z,9.20
2023-05-18T13:23:56.944Z,8.00
2023-05-18T13:24:59.274Z,8.11
2023-05-18T13:26:01.912Z,9.44
2023-05-18T13:27:04.213Z,7.90
2023-05-18T13:28:06.736Z,8.22
2023-05-18T13:29:09.958Z,8.56
2023-05-18T13:30:12.817Z,7.82
2023-05-18T13:31:16.172Z,8.56
2023-05-18T13:32:19.246Z,8.20
2023-05-18T13:33:21.960Z,8.60
2023-05-18T13:34:26.539Z,8.90
2023-05-18T13:35:30.252Z,11.10
2023-05-18T13:36:35.396Z,8.80
2023-05-18T13:37:38.883Z,9.40
2023-05-18T13:38:43.096Z,8.50
2023-05-18T13:39:45.441Z,10.10
2023-05-18T13:40:48.847Z,7.22
2023-05-18T13:41:51.113Z,6.70
2023-05-18T13:42:53.295Z,8.89
2023-05-18T13:43:55.418Z,8.78
2023-05-18T13:44:58.156Z,8.56
2023-05-18T13:46:01.720Z,9.89
2023-05-18T13:47:04.433Z,3.64
2023-05-18T13:48:10.971Z,9.00
2023-05-18T13:49:13.686Z,9.60
2023-05-18T13:50:19.478Z,9.10
2023-05-18T13:51:21.866Z,10.10
2023-05-18T13:52:24.512Z,9.89
2023-05-18T13:53:27.331Z,10.00
2023-05-18T13:54:30.703Z,9.60
2023-05-18T13:55:33.080Z,8.33
2023-05-18T13:56:35.849Z,9.90
2023-05-18T13:57:38.690Z,7.33
2023-05-18T13:58:41.341Z,9.70
2023-05-18T13:59:44.463Z,9.11
2023-05-18T14:00:47.199Z,7.70
2023-05-18T14:01:49.877Z,8.10
2023-05-18T14:02:54.835Z,8.56
2023-05-18T14:03:57.282Z,7.50
2023-05-18T14:05:00.702Z,10.11
2023-05-18T14:06:03.129Z,7.70
2023-05-18T14:07:05.369Z,9.00
2023-05-18T14:08:07.914Z,9.44
2023-05-18T14:09:10.433Z,9.33
2023-05-18T14:10:13.636Z,8.10
2023-05-18T14:11:16.366Z,9.78
2023-05-18T14:12:18.737Z,8.90
2023-05-18T14:13:22.033Z,7.00
2023-05-18T14:14:24.106Z,7.80
2023-05-18T14:15:26.299Z,9.22
2023-05-18T14:16:29.498Z,9.22
2023-05-18T14:17:32.306Z,9.30
2023-05-18T14:18:34.945Z,10.20
2023-05-18T14:19:37.017Z,7.44
2023-05-18T14:20:39.864Z,8.44
2023-05-18T14:21:42.239Z,9.60
2023-05-18T14:22:45.863Z,9.89
2023-05-18T14:23:48.121Z,9.10
2023-05-18T14:24:50.242Z,9.89
2023-05-18T14:25:52.348Z,10.11
2023-05-18T14:26:55.686Z,8.44